sensor_id;sensor_type;location;lat;lon;timestamp;P1;durP1;ratioP1;P2;durP2;ratioP2
67757;SDS011;54562;47.620;18.786;2023-07-31T00:02:00;9.00;;;5.40;;
67757;SDS011;54562;47.620;18.786;2023-07-31T00:05:09;8.40;;;5.40;;
67757;SDS011;54562;47.620;18.786;2023-07-31T00:08:16;7.50;;;5.30;;
67757;SDS011;54562;47.620;18.786;2023-07-31T00:11:22;10.30;;;5.70;;
67757;SDS011;54562;47.620;18.786;2023-07-31T00:14:29;9.20;;;5.60;;
67757;SDS011;54562;47.620;18.786;2023-07-31T00:17:35;9.30;;;5.50;;
67757;SDS011;54562;47.620;18.786;2023-07-31T00:20:42;9.60;;;5.80;;
67757;SDS011;54562;47.620;18.786;2023-07-31T00:23:49;9.60;;;6.20;;
67757;SDS011;54562;47.620;18.786;2023-07-31T00:26:55;10.70;;;6.20;;
67757;SDS011;54562;47.620;18.786;2023-07-31T00:30:01;9.90;;;6.10;;
67757;SDS011;54562;47.620;18.786;2023-07-31T00:33:09;12.20;;;6.50;;
67757;SDS011;54562;47.620;18.786;2023-07-31T00:36:19;9.90;;;5.80;;
67757;SDS011;54562;47.620;18.786;2023-07-31T00:39:33;8.20;;;5.50;;
67757;SDS011;54562;47.620;18.786;2023-07-31T00:42:43;8.30;;;5.70;;
67757;SDS011;54562;47.620;18.786;2023-07-31T00:45:50;8.30;;;5.40;;
67757;SDS011;54562;47.620;18.786;2023-07-31T00:48:57;9.00;;;6.00;;
67757;SDS011;54562;47.620;18.786;2023-07-31T00:52:04;9.50;;;6.10;;
67757;SDS011;54562;47.620;18.786;2023-07-31T00:55:11;9.20;;;6.40;;
67757;SDS011;54562;47.620;18.786;2023-07-31T00:58:18;8.30;;;5.50;;
67757;SDS011;54562;47.620;18.786;2023-07-31T01:01:24;8.60;;;6.00;;
67757;SDS011;54562;47.620;18.786;2023-07-31T01:04:30;9.60;;;5.50;;
67757;SDS011;54562;47.620;18.786;2023-07-31T01:07:39;9.00;;;5.90;;
67757;SDS011;54562;47.620;18.786;2023-07-31T01:10:54;8.30;;;5.40;;
67757;SDS011;54562;47.620;18.786;2023-07-31T01:14:05;9.00;;;5.80;;
67757;SDS011;54562;47.620;18.786;2023-07-31T01:17:11;9.10;;;5.40;;
67757;SDS011;54562;47.620;18.786;2023-07-31T01:20:18;9.00;;;5.30;;
67757;SDS011;54562;47.620;18.786;2023-07-31T01:23:38;9.00;;;4.80;;
67757;SDS011;54562;47.620;18.786;2023-07-31T01:27:02;7.40;;;4.70;;
67757;SDS011;54562;47.620;18.786;2023-07-31T01:30:13;7.50;;;4.80;;
67757;SDS011;54562;47.620;18.786;2023-07-31T01:33:23;8.20;;;4.80;;
67757;SDS011;54562;47.620;18.786;2023-07-31T01:36:29;7.30;;;4.00;;
67757;SDS011;54562;47.620;18.786;2023-07-31T01:39:36;7.80;;;4.10;;
67757;SDS011;54562;47.620;18.786;2023-07-31T01:42:43;6.70;;;4.20;;
67757;SDS011;54562;47.620;18.786;2023-07-31T01:45:49;6.70;;;4.30;;
67757;SDS011;54562;47.620;18.786;2023-07-31T01:48:56;7.90;;;4.20;;
67757;SDS011;54562;47.620;18.786;2023-07-31T01:52:03;7.20;;;3.90;;
67757;SDS011;54562;47.620;18.786;2023-07-31T01:55:10;6.20;;;3.60;;
67757;SDS011;54562;47.620;18.786;2023-07-31T01:58:16;7.30;;;3.80;;
67757;SDS011;54562;47.620;18.786;2023-07-31T02:01:23;7.40;;;4.00;;
67757;SDS011;54562;47.620;18.786;2023-07-31T02:04:29;7.60;;;3.80;;
67757;SDS011;54562;47.620;18.786;2023-07-31T02:07:35;6.80;;;3.60;;
67757;SDS011;54562;47.620;18.786;2023-07-31T02:10:42;6.40;;;3.70;;
67757;SDS011;54562;47.620;18.786;2023-07-31T02:13:49;6.80;;;3.70;;
67757;SDS011;54562;47.620;18.786;2023-07-31T02:16:55;7.20;;;3.50;;
67757;SDS011;54562;47.620;18.786;2023-07-31T02:20:02;6.90;;;3.80;;
67757;SDS011;54562;47.620;18.786;2023-07-31T02:23:09;8.50;;;3.60;;
67757;SDS011;54562;47.620;18.786;2023-07-31T02:26:16;6.10;;;3.50;;
67757;SDS011;54562;47.620;18.786;2023-07-31T02:29:22;7.90;;;3.20;;
67757;SDS011;54562;47.620;18.786;2023-07-31T02:32:28;6.70;;;3.30;;
67757;SDS011;54562;47.620;18.786;2023-07-31T02:35:35;7.10;;;3.40;;
67757;SDS011;54562;47.620;18.786;2023-07-31T02:38:42;7.40;;;3.40;;
67757;SDS011;54562;47.620;18.786;2023-07-31T02:41:48;6.30;;;3.40;;
67757;SDS011;54562;47.620;18.786;2023-07-31T02:44:54;6.80;;;3.60;;
67757;SDS011;54562;47.620;18.786;2023-07-31T02:48:00;7.70;;;3.50;;
67757;SDS011;54562;47.620;18.786;2023-07-31T02:51:07;8.00;;;3.50;;
67757;SDS011;54562;47.620;18.786;2023-07-31T02:54:14;6.80;;;3.20;;
67757;SDS011;54562;47.620;18.786;2023-07-31T02:57:20;6.50;;;3.10;;
67757;SDS011;54562;47.620;18.786;2023-07-31T03:00:27;7.60;;;2.90;;
67757;SDS011;54562;47.620;18.786;2023-07-31T03:03:33;5.80;;;3.10;;
67757;SDS011;54562;47.620;18.786;2023-07-31T03:06:39;7.00;;;3.30;;
67757;SDS011;54562;47.620;18.786;2023-07-31T03:09:47;7.00;;;3.10;;
67757;SDS011;54562;47.620;18.786;2023-07-31T03:12:54;6.10;;;3.00;;
67757;SDS011;54562;47.620;18.786;2023-07-31T03:16:00;5.30;;;3.00;;
67757;SDS011;54562;47.620;18.786;2023-07-31T03:19:07;6.00;;;3.20;;
67757;SDS011;54562;47.620;18.786;2023-07-31T03:22:14;5.30;;;2.80;;
67757;SDS011;54562;47.620;18.786;2023-07-31T03:25:23;6.00;;;3.00;;
67757;SDS011;54562;47.620;18.786;2023-07-31T03:28:29;7.40;;;3.00;;
67757;SDS011;54562;47.620;18.786;2023-07-31T03:31:36;6.50;;;3.00;;
67757;SDS011;54562;47.620;18.786;2023-07-31T03:34:43;6.70;;;3.00;;
67757;SDS011;54562;47.620;18.786;2023-07-31T03:37:50;7.40;;;2.70;;
67757;SDS011;54562;47.620;18.786;2023-07-31T03:40:56;6.70;;;3.00;;
67757;SDS011;54562;47.620;18.786;2023-07-31T03:44:04;7.00;;;3.10;;
67757;SDS011;54562;47.620;18.786;2023-07-31T03:47:11;6.10;;;3.30;;
67757;SDS011;54562;47.620;18.786;2023-07-31T03:50:20;7.70;;;3.30;;
67757;SDS011;54562;47.620;18.786;2023-07-31T03:53:28;6.20;;;3.10;;
67757;SDS011;54562;47.620;18.786;2023-07-31T03:56:34;6.40;;;3.00;;
67757;SDS011;54562;47.620;18.786;2023-07-31T03:59:42;6.70;;;2.90;;
67757;SDS011;54562;47.620;18.786;2023-07-31T04:02:50;7.70;;;3.10;;
67757;SDS011;54562;47.620;18.786;2023-07-31T04:05:58;5.80;;;3.00;;
67757;SDS011;54562;47.620;18.786;2023-07-31T04:09:04;7.40;;;3.20;;
67757;SDS011;54562;47.620;18.786;2023-07-31T04:12:11;6.50;;;3.00;;
67757;SDS011;54562;47.620;18.786;2023-07-31T04:15:18;5.90;;;3.00;;
67757;SDS011;54562;47.620;18.786;2023-07-31T04:18:25;5.30;;;2.80;;
67757;SDS011;54562;47.620;18.786;2023-07-31T04:21:32;5.30;;;2.80;;
67757;SDS011;54562;47.620;18.786;2023-07-31T04:24:39;5.80;;;2.90;;
67757;SDS011;54562;47.620;18.786;2023-07-31T04:27:46;6.20;;;3.00;;
67757;SDS011;54562;47.620;18.786;2023-07-31T04:30:53;5.10;;;2.60;;
67757;SDS011;54562;47.620;18.786;2023-07-31T04:33:59;6.10;;;3.30;;
67757;SDS011;54562;47.620;18.786;2023-07-31T04:37:06;5.60;;;2.70;;
67757;SDS011;54562;47.620;18.786;2023-07-31T04:40:12;7.10;;;2.80;;
67757;SDS011;54562;47.620;18.786;2023-07-31T04:43:19;5.70;;;2.50;;
67757;SDS011;54562;47.620;18.786;2023-07-31T04:46:25;5.60;;;2.70;;
67757;SDS011;54562;47.620;18.786;2023-07-31T04:49:34;5.80;;;2.80;;
67757;SDS011;54562;47.620;18.786;2023-07-31T04:52:41;6.40;;;2.70;;
67757;SDS011;54562;47.620;18.786;2023-07-31T04:55:47;6.80;;;2.50;;
67757;SDS011;54562;47.620;18.786;2023-07-31T04:58:53;5.80;;;2.60;;
67757;SDS011;54562;47.620;18.786;2023-07-31T05:02:02;5.40;;;2.50;;
67757;SDS011;54562;47.620;18.786;2023-07-31T05:05:10;5.10;;;2.60;;
67757;SDS011;54562;47.620;18.786;2023-07-31T05:08:17;6.00;;;2.70;;
67757;SDS011;54562;47.620;18.786;2023-07-31T05:11:24;5.90;;;2.50;;
67757;SDS011;54562;47.620;18.786;2023-07-31T05:17:36;6.50;;;2.80;;
67757;SDS011;54562;47.620;18.786;2023-07-31T05:20:43;5.80;;;2.50;;
67757;SDS011;54562;47.620;18.786;2023-07-31T05:23:50;5.20;;;2.30;;
67757;SDS011;54562;47.620;18.786;2023-07-31T05:26:57;6.30;;;2.40;;
67757;SDS011;54562;47.620;18.786;2023-07-31T05:30:05;7.00;;;2.30;;
67757;SDS011;54562;47.620;18.786;2023-07-31T05:33:13;5.10;;;2.30;;
67757;SDS011;54562;47.620;18.786;2023-07-31T05:36:21;5.20;;;2.50;;
67757;SDS011;54562;47.620;18.786;2023-07-31T05:39:27;5.60;;;2.20;;
67757;SDS011;54562;47.620;18.786;2023-07-31T05:42:34;6.10;;;2.60;;
67757;SDS011;54562;47.620;18.786;2023-07-31T05:45:42;5.90;;;2.30;;
67757;SDS011;54562;47.620;18.786;2023-07-31T05:48:48;4.50;;;2.10;;
67757;SDS011;54562;47.620;18.786;2023-07-31T05:51:55;5.60;;;2.30;;
67757;SDS011;54562;47.620;18.786;2023-07-31T05:55:01;5.10;;;2.10;;
67757;SDS011;54562;47.620;18.786;2023-07-31T05:58:08;4.90;;;2.20;;
67757;SDS011;54562;47.620;18.786;2023-07-31T06:01:17;6.90;;;2.40;;
67757;SDS011;54562;47.620;18.786;2023-07-31T06:04:24;7.00;;;2.30;;
67757;SDS011;54562;47.620;18.786;2023-07-31T06:07:32;6.60;;;2.30;;
67757;SDS011;54562;47.620;18.786;2023-07-31T06:10:39;5.40;;;2.20;;
67757;SDS011;54562;47.620;18.786;2023-07-31T06:13:46;5.50;;;2.20;;
67757;SDS011;54562;47.620;18.786;2023-07-31T06:16:54;4.90;;;2.20;;
67757;SDS011;54562;47.620;18.786;2023-07-31T06:20:02;5.90;;;2.30;;
67757;SDS011;54562;47.620;18.786;2023-07-31T06:23:10;5.30;;;2.10;;
67757;SDS011;54562;47.620;18.786;2023-07-31T06:26:16;6.60;;;2.10;;
67757;SDS011;54562;47.620;18.786;2023-07-31T06:29:23;5.20;;;2.10;;
67757;SDS011;54562;47.620;18.786;2023-07-31T06:32:28;4.90;;;2.10;;
67757;SDS011;54562;47.620;18.786;2023-07-31T06:35:36;6.10;;;2.30;;
67757;SDS011;54562;47.620;18.786;2023-07-31T06:38:43;5.70;;;2.40;;
67757;SDS011;54562;47.620;18.786;2023-07-31T06:41:49;6.50;;;2.40;;
67757;SDS011;54562;47.620;18.786;2023-07-31T06:44:56;5.60;;;2.30;;
67757;SDS011;54562;47.620;18.786;2023-07-31T06:48:02;5.20;;;2.20;;
67757;SDS011;54562;47.620;18.786;2023-07-31T06:51:11;6.50;;;2.30;;
67757;SDS011;54562;47.620;18.786;2023-07-31T06:54:17;8.20;;;2.50;;
67757;SDS011;54562;47.620;18.786;2023-07-31T06:57:24;6.10;;;2.30;;
67757;SDS011;54562;47.620;18.786;2023-07-31T07:00:36;5.60;;;2.50;;
67757;SDS011;54562;47.620;18.786;2023-07-31T07:03:43;7.50;;;2.40;;
67757;SDS011;54562;47.620;18.786;2023-07-31T07:06:49;7.50;;;2.40;;
67757;SDS011;54562;47.620;18.786;2023-07-31T07:09:56;6.00;;;2.50;;
67757;SDS011;54562;47.620;18.786;2023-07-31T07:13:03;6.60;;;2.40;;
67757;SDS011;54562;47.620;18.786;2023-07-31T07:16:09;6.00;;;2.40;;
67757;SDS011;54562;47.620;18.786;2023-07-31T07:19:16;6.70;;;2.40;;
67757;SDS011;54562;47.620;18.786;2023-07-31T07:22:22;5.30;;;2.30;;
67757;SDS011;54562;47.620;18.786;2023-07-31T07:25:29;6.60;;;2.20;;
67757;SDS011;54562;47.620;18.786;2023-07-31T07:28:36;5.90;;;2.40;;
67757;SDS011;54562;47.620;18.786;2023-07-31T07:31:42;5.70;;;2.40;;
67757;SDS011;54562;47.620;18.786;2023-07-31T07:34:49;5.90;;;2.20;;
67757;SDS011;54562;47.620;18.786;2023-07-31T07:37:55;5.60;;;2.10;;
67757;SDS011;54562;47.620;18.786;2023-07-31T07:41:02;6.40;;;2.30;;
67757;SDS011;54562;47.620;18.786;2023-07-31T07:44:08;6.40;;;2.20;;
67757;SDS011;54562;47.620;18.786;2023-07-31T07:47:15;5.40;;;2.30;;
67757;SDS011;54562;47.620;18.786;2023-07-31T07:50:21;5.60;;;2.30;;
67757;SDS011;54562;47.620;18.786;2023-07-31T07:53:28;7.30;;;2.50;;
67757;SDS011;54562;47.620;18.786;2023-07-31T07:56:34;6.30;;;2.40;;
67757;SDS011;54562;47.620;18.786;2023-07-31T07:59:42;8.10;;;2.80;;
67757;SDS011;54562;47.620;18.786;2023-07-31T08:02:48;5.20;;;2.30;;
67757;SDS011;54562;47.620;18.786;2023-07-31T08:05:59;6.20;;;2.60;;
67757;SDS011;54562;47.620;18.786;2023-07-31T08:09:05;5.20;;;2.50;;
67757;SDS011;54562;47.620;18.786;2023-07-31T08:12:13;6.50;;;2.40;;
67757;SDS011;54562;47.620;18.786;2023-07-31T08:15:20;5.40;;;2.40;;
67757;SDS011;54562;47.620;18.786;2023-07-31T08:18:26;7.50;;;2.70;;
67757;SDS011;54562;47.620;18.786;2023-07-31T08:21:32;7.10;;;2.30;;
67757;SDS011;54562;47.620;18.786;2023-07-31T08:24:39;5.70;;;2.40;;
67757;SDS011;54562;47.620;18.786;2023-07-31T08:27:46;6.10;;;2.50;;
67757;SDS011;54562;47.620;18.786;2023-07-31T08:30:52;6.60;;;2.30;;
67757;SDS011;54562;47.620;18.786;2023-07-31T08:33:59;5.80;;;2.40;;
67757;SDS011;54562;47.620;18.786;2023-07-31T08:37:06;7.20;;;2.30;;
67757;SDS011;54562;47.620;18.786;2023-07-31T08:40:12;6.30;;;2.30;;
67757;SDS011;54562;47.620;18.786;2023-07-31T08:43:19;5.40;;;2.40;;
67757;SDS011;54562;47.620;18.786;2023-07-31T08:46:27;10.20;;;2.40;;
67757;SDS011;54562;47.620;18.786;2023-07-31T08:49:34;7.30;;;2.50;;
67757;SDS011;54562;47.620;18.786;2023-07-31T08:52:40;7.70;;;2.30;;
67757;SDS011;54562;47.620;18.786;2023-07-31T08:55:47;6.60;;;2.20;;
67757;SDS011;54562;47.620;18.786;2023-07-31T08:58:55;6.00;;;2.30;;
67757;SDS011;54562;47.620;18.786;2023-07-31T09:05:11;6.00;;;2.40;;
67757;SDS011;54562;47.620;18.786;2023-07-31T09:08:18;5.20;;;2.30;;
67757;SDS011;54562;47.620;18.786;2023-07-31T09:11:27;9.50;;;2.30;;
67757;SDS011;54562;47.620;18.786;2023-07-31T09:14:35;6.60;;;2.30;;
67757;SDS011;54562;47.620;18.786;2023-07-31T09:17:44;5.70;;;2.10;;
67757;SDS011;54562;47.620;18.786;2023-07-31T09:21:01;5.70;;;2.40;;
67757;SDS011;54562;47.620;18.786;2023-07-31T09:24:08;6.70;;;2.10;;
67757;SDS011;54562;47.620;18.786;2023-07-31T09:27:14;6.20;;;2.50;;
67757;SDS011;54562;47.620;18.786;2023-07-31T09:30:21;6.60;;;2.60;;
67757;SDS011;54562;47.620;18.786;2023-07-31T09:33:27;7.50;;;2.40;;
67757;SDS011;54562;47.620;18.786;2023-07-31T09:36:35;6.10;;;2.30;;
67757;SDS011;54562;47.620;18.786;2023-07-31T09:39:47;7.90;;;2.40;;
67757;SDS011;54562;47.620;18.786;2023-07-31T09:42:58;5.10;;;2.20;;
67757;SDS011;54562;47.620;18.786;2023-07-31T09:46:06;6.10;;;2.40;;
67757;SDS011;54562;47.620;18.786;2023-07-31T09:49:19;6.80;;;2.10;;
67757;SDS011;54562;47.620;18.786;2023-07-31T09:59:02;8.60;;;2.20;;
67757;SDS011;54562;47.620;18.786;2023-07-31T10:02:09;6.40;;;2.00;;
67757;SDS011;54562;47.620;18.786;2023-07-31T10:05:28;6.00;;;2.20;;
67757;SDS011;54562;47.620;18.786;2023-07-31T10:08:38;7.20;;;2.10;;
67757;SDS011;54562;47.620;18.786;2023-07-31T10:11:46;4.50;;;1.80;;
67757;SDS011;54562;47.620;18.786;2023-07-31T10:14:56;7.90;;;2.20;;
67757;SDS011;54562;47.620;18.786;2023-07-31T10:18:03;7.50;;;2.10;;
67757;SDS011;54562;47.620;18.786;2023-07-31T10:21:11;7.00;;;2.00;;
67757;SDS011;54562;47.620;18.786;2023-07-31T10:24:18;6.80;;;2.30;;
67757;SDS011;54562;47.620;18.786;2023-07-31T10:30:32;6.20;;;1.90;;
67757;SDS011;54562;47.620;18.786;2023-07-31T10:33:41;5.80;;;2.10;;
67757;SDS011;54562;47.620;18.786;2023-07-31T10:36:48;5.60;;;1.90;;
67757;SDS011;54562;47.620;18.786;2023-07-31T10:39:59;5.80;;;1.90;;
67757;SDS011;54562;47.620;18.786;2023-07-31T10:43:07;6.40;;;1.80;;
67757;SDS011;54562;47.620;18.786;2023-07-31T10:46:14;5.40;;;1.90;;
67757;SDS011;54562;47.620;18.786;2023-07-31T10:49:21;6.30;;;1.90;;
67757;SDS011;54562;47.620;18.786;2023-07-31T10:52:29;7.00;;;1.90;;
67757;SDS011;54562;47.620;18.786;2023-07-31T10:55:40;5.20;;;1.80;;
67757;SDS011;54562;47.620;18.786;2023-07-31T10:58:48;7.20;;;1.80;;
67757;SDS011;54562;47.620;18.786;2023-07-31T11:02:07;6.80;;;1.90;;
67757;SDS011;54562;47.620;18.786;2023-07-31T11:05:44;5.80;;;1.80;;
67757;SDS011;54562;47.620;18.786;2023-07-31T11:08:52;5.50;;;1.80;;
67757;SDS011;54562;47.620;18.786;2023-07-31T11:11:59;6.50;;;1.90;;
67757;SDS011;54562;47.620;18.786;2023-07-31T11:15:07;6.30;;;1.80;;
67757;SDS011;54562;47.620;18.786;2023-07-31T11:18:15;4.00;;;1.50;;
67757;SDS011;54562;47.620;18.786;2023-07-31T11:21:22;4.30;;;1.60;;
67757;SDS011;54562;47.620;18.786;2023-07-31T11:24:29;5.90;;;2.00;;
67757;SDS011;54562;47.620;18.786;2023-07-31T11:27:39;6.10;;;1.70;;
67757;SDS011;54562;47.620;18.786;2023-07-31T11:30:46;5.50;;;1.80;;
67757;SDS011;54562;47.620;18.786;2023-07-31T11:34:05;5.10;;;2.00;;
67757;SDS011;54562;47.620;18.786;2023-07-31T11:37:11;4.40;;;1.60;;
67757;SDS011;54562;47.620;18.786;2023-07-31T11:40:18;5.80;;;2.00;;
67757;SDS011;54562;47.620;18.786;2023-07-31T11:43:30;6.30;;;1.90;;
67757;SDS011;54562;47.620;18.786;2023-07-31T11:46:38;3.60;;;1.80;;
67757;SDS011;54562;47.620;18.786;2023-07-31T11:49:45;5.80;;;1.90;;
67757;SDS011;54562;47.620;18.786;2023-07-31T11:52:52;6.10;;;1.80;;
67757;SDS011;54562;47.620;18.786;2023-07-31T11:56:01;5.00;;;1.70;;
67757;SDS011;54562;47.620;18.786;2023-07-31T11:59:11;5.20;;;1.90;;
67757;SDS011;54562;47.620;18.786;2023-07-31T12:02:18;5.50;;;1.70;;
67757;SDS011;54562;47.620;18.786;2023-07-31T12:05:24;4.90;;;1.80;;
67757;SDS011;54562;47.620;18.786;2023-07-31T12:08:32;6.00;;;2.00;;
67757;SDS011;54562;47.620;18.786;2023-07-31T12:11:43;3.90;;;1.60;;
67757;SDS011;54562;47.620;18.786;2023-07-31T12:14:50;4.30;;;1.70;;
67757;SDS011;54562;47.620;18.786;2023-07-31T12:17:57;4.20;;;1.60;;
67757;SDS011;54562;47.620;18.786;2023-07-31T12:21:06;5.10;;;1.80;;
67757;SDS011;54562;47.620;18.786;2023-07-31T12:24:14;4.70;;;1.80;;
67757;SDS011;54562;47.620;18.786;2023-07-31T12:27:21;8.20;;;1.90;;
67757;SDS011;54562;47.620;18.786;2023-07-31T12:30:31;5.30;;;1.90;;
67757;SDS011;54562;47.620;18.786;2023-07-31T12:33:39;7.40;;;1.80;;
67757;SDS011;54562;47.620;18.786;2023-07-31T12:36:47;5.10;;;1.70;;
67757;SDS011;54562;47.620;18.786;2023-07-31T12:39:56;5.90;;;1.90;;
67757;SDS011;54562;47.620;18.786;2023-07-31T12:43:10;5.40;;;1.70;;
67757;SDS011;54562;47.620;18.786;2023-07-31T12:46:18;4.90;;;1.60;;
67757;SDS011;54562;47.620;18.786;2023-07-31T12:49:24;4.50;;;1.80;;
67757;SDS011;54562;47.620;18.786;2023-07-31T12:52:30;5.90;;;1.80;;
67757;SDS011;54562;47.620;18.786;2023-07-31T12:55:37;4.90;;;1.70;;
67757;SDS011;54562;47.620;18.786;2023-07-31T12:58:43;5.20;;;1.80;;
67757;SDS011;54562;47.620;18.786;2023-07-31T13:01:49;5.20;;;2.10;;
67757;SDS011;54562;47.620;18.786;2023-07-31T13:04:57;5.20;;;1.90;;
67757;SDS011;54562;47.620;18.786;2023-07-31T13:08:04;6.40;;;2.00;;
67757;SDS011;54562;47.620;18.786;2023-07-31T13:11:11;5.90;;;1.80;;
67757;SDS011;54562;47.620;18.786;2023-07-31T13:14:18;5.50;;;1.90;;
67757;SDS011;54562;47.620;18.786;2023-07-31T13:17:24;4.20;;;1.50;;
67757;SDS011;54562;47.620;18.786;2023-07-31T13:20:42;5.50;;;1.80;;
67757;SDS011;54562;47.620;18.786;2023-07-31T13:23:49;7.00;;;2.00;;
67757;SDS011;54562;47.620;18.786;2023-07-31T13:26:56;4.60;;;1.80;;
67757;SDS011;54562;47.620;18.786;2023-07-31T13:30:05;4.60;;;1.70;;
67757;SDS011;54562;47.620;18.786;2023-07-31T13:33:13;5.20;;;1.80;;
67757;SDS011;54562;47.620;18.786;2023-07-31T13:36:38;4.40;;;1.80;;
67757;SDS011;54562;47.620;18.786;2023-07-31T13:39:45;5.30;;;2.00;;
67757;SDS011;54562;47.620;18.786;2023-07-31T13:42:51;5.10;;;1.70;;
67757;SDS011;54562;47.620;18.786;2023-07-31T13:45:59;4.60;;;1.80;;
67757;SDS011;54562;47.620;18.786;2023-07-31T13:49:10;5.90;;;1.90;;
67757;SDS011;54562;47.620;18.786;2023-07-31T13:52:16;6.50;;;1.80;;
67757;SDS011;54562;47.620;18.786;2023-07-31T13:55:23;5.40;;;1.80;;
67757;SDS011;54562;47.620;18.786;2023-07-31T13:58:30;6.10;;;1.90;;
67757;SDS011;54562;47.620;18.786;2023-07-31T14:01:36;4.50;;;1.80;;
67757;SDS011;54562;47.620;18.786;2023-07-31T14:04:43;7.10;;;2.10;;
67757;SDS011;54562;47.620;18.786;2023-07-31T14:07:50;5.60;;;2.10;;
67757;SDS011;54562;47.620;18.786;2023-07-31T14:10:56;4.50;;;1.70;;
67757;SDS011;54562;47.620;18.786;2023-07-31T14:14:04;4.90;;;1.90;;
67757;SDS011;54562;47.620;18.786;2023-07-31T14:17:10;5.80;;;1.90;;
67757;SDS011;54562;47.620;18.786;2023-07-31T14:20:18;5.20;;;1.70;;
67757;SDS011;54562;47.620;18.786;2023-07-31T14:23:25;5.30;;;1.70;;
67757;SDS011;54562;47.620;18.786;2023-07-31T14:26:33;5.10;;;1.90;;
67757;SDS011;54562;47.620;18.786;2023-07-31T14:29:39;5.00;;;1.70;;
67757;SDS011;54562;47.620;18.786;2023-07-31T14:32:46;5.30;;;1.70;;
67757;SDS011;54562;47.620;18.786;2023-07-31T14:35:54;5.20;;;1.80;;
67757;SDS011;54562;47.620;18.786;2023-07-31T14:39:01;7.00;;;1.80;;
67757;SDS011;54562;47.620;18.786;2023-07-31T14:42:09;5.20;;;1.80;;
67757;SDS011;54562;47.620;18.786;2023-07-31T14:45:16;6.70;;;1.90;;
67757;SDS011;54562;47.620;18.786;2023-07-31T14:48:22;5.00;;;1.80;;
67757;SDS011;54562;47.620;18.786;2023-07-31T14:51:29;4.90;;;1.60;;
67757;SDS011;54562;47.620;18.786;2023-07-31T14:54:36;5.20;;;2.00;;
67757;SDS011;54562;47.620;18.786;2023-07-31T14:57:42;6.50;;;1.80;;
67757;SDS011;54562;47.620;18.786;2023-07-31T15:00:49;5.00;;;1.80;;
67757;SDS011;54562;47.620;18.786;2023-07-31T15:03:56;5.70;;;1.90;;
67757;SDS011;54562;47.620;18.786;2023-07-31T15:07:03;6.60;;;1.80;;
67757;SDS011;54562;47.620;18.786;2023-07-31T15:13:17;5.40;;;1.80;;
67757;SDS011;54562;47.620;18.786;2023-07-31T15:16:23;4.20;;;1.70;;
67757;SDS011;54562;47.620;18.786;2023-07-31T15:19:32;5.80;;;1.80;;
67757;SDS011;54562;47.620;18.786;2023-07-31T15:22:39;4.60;;;1.60;;
67757;SDS011;54562;47.620;18.786;2023-07-31T15:25:46;4.20;;;1.70;;
67757;SDS011;54562;47.620;18.786;2023-07-31T15:28:55;5.60;;;1.80;;
67757;SDS011;54562;47.620;18.786;2023-07-31T15:32:02;4.90;;;1.80;;
67757;SDS011;54562;47.620;18.786;2023-07-31T15:35:09;5.40;;;1.80;;
67757;SDS011;54562;47.620;18.786;2023-07-31T15:38:16;5.60;;;1.70;;
67757;SDS011;54562;47.620;18.786;2023-07-31T15:41:25;6.90;;;2.00;;
67757;SDS011;54562;47.620;18.786;2023-07-31T15:44:32;5.30;;;1.80;;
67757;SDS011;54562;47.620;18.786;2023-07-31T15:47:39;5.10;;;1.80;;
67757;SDS011;54562;47.620;18.786;2023-07-31T15:50:45;7.60;;;1.90;;
67757;SDS011;54562;47.620;18.786;2023-07-31T15:53:52;5.30;;;1.70;;
67757;SDS011;54562;47.620;18.786;2023-07-31T15:56:59;4.50;;;1.70;;
67757;SDS011;54562;47.620;18.786;2023-07-31T16:00:06;4.40;;;1.80;;
67757;SDS011;54562;47.620;18.786;2023-07-31T16:03:16;3.90;;;1.80;;
67757;SDS011;54562;47.620;18.786;2023-07-31T16:06:25;5.80;;;1.80;;
67757;SDS011;54562;47.620;18.786;2023-07-31T16:09:31;11.30;;;2.00;;
67757;SDS011;54562;47.620;18.786;2023-07-31T16:12:38;4.80;;;1.90;;
67757;SDS011;54562;47.620;18.786;2023-07-31T16:15:44;5.60;;;2.00;;
67757;SDS011;54562;47.620;18.786;2023-07-31T16:18:51;7.50;;;1.70;;
67757;SDS011;54562;47.620;18.786;2023-07-31T16:21:57;5.30;;;1.70;;
67757;SDS011;54562;47.620;18.786;2023-07-31T16:25:07;5.80;;;1.80;;
67757;SDS011;54562;47.620;18.786;2023-07-31T16:28:18;5.70;;;1.90;;
67757;SDS011;54562;47.620;18.786;2023-07-31T16:31:25;5.00;;;1.90;;
67757;SDS011;54562;47.620;18.786;2023-07-31T16:34:50;4.90;;;2.00;;
67757;SDS011;54562;47.620;18.786;2023-07-31T16:37:57;6.00;;;1.90;;
67757;SDS011;54562;47.620;18.786;2023-07-31T16:41:06;8.60;;;2.10;;
67757;SDS011;54562;47.620;18.786;2023-07-31T16:44:12;5.70;;;1.80;;
67757;SDS011;54562;47.620;18.786;2023-07-31T16:47:19;4.90;;;1.90;;
67757;SDS011;54562;47.620;18.786;2023-07-31T16:53:31;4.30;;;1.80;;
67757;SDS011;54562;47.620;18.786;2023-07-31T16:56:37;9.80;;;2.00;;
67757;SDS011;54562;47.620;18.786;2023-07-31T17:00:01;6.00;;;1.90;;
67757;SDS011;54562;47.620;18.786;2023-07-31T17:03:08;4.50;;;1.70;;
67757;SDS011;54562;47.620;18.786;2023-07-31T17:06:14;6.10;;;2.10;;
67757;SDS011;54562;47.620;18.786;2023-07-31T17:09:21;5.60;;;1.90;;
67757;SDS011;54562;47.620;18.786;2023-07-31T17:12:27;5.60;;;2.10;;
67757;SDS011;54562;47.620;18.786;2023-07-31T17:15:34;7.10;;;1.80;;
67757;SDS011;54562;47.620;18.786;2023-07-31T17:18:51;5.00;;;1.90;;
67757;SDS011;54562;47.620;18.786;2023-07-31T17:25:04;5.40;;;1.80;;
67757;SDS011;54562;47.620;18.786;2023-07-31T17:28:12;5.20;;;1.80;;
67757;SDS011;54562;47.620;18.786;2023-07-31T17:31:19;5.90;;;1.80;;
67757;SDS011;54562;47.620;18.786;2023-07-31T17:34:25;4.90;;;1.90;;
67757;SDS011;54562;47.620;18.786;2023-07-31T17:37:32;9.00;;;2.10;;
67757;SDS011;54562;47.620;18.786;2023-07-31T17:40:38;5.90;;;2.00;;
67757;SDS011;54562;47.620;18.786;2023-07-31T17:43:45;5.80;;;2.00;;
67757;SDS011;54562;47.620;18.786;2023-07-31T17:46:57;5.30;;;2.00;;
67757;SDS011;54562;47.620;18.786;2023-07-31T17:53:12;5.80;;;1.90;;
67757;SDS011;54562;47.620;18.786;2023-07-31T17:56:19;5.00;;;2.00;;
67757;SDS011;54562;47.620;18.786;2023-07-31T17:59:26;11.10;;;2.20;;
67757;SDS011;54562;47.620;18.786;2023-07-31T18:02:32;6.10;;;1.90;;
67757;SDS011;54562;47.620;18.786;2023-07-31T18:05:42;6.30;;;2.00;;
67757;SDS011;54562;47.620;18.786;2023-07-31T18:08:49;4.80;;;1.80;;
67757;SDS011;54562;47.620;18.786;2023-07-31T18:11:56;6.20;;;2.00;;
67757;SDS011;54562;47.620;18.786;2023-07-31T18:15:03;8.40;;;1.90;;
67757;SDS011;54562;47.620;18.786;2023-07-31T18:18:11;11.10;;;2.40;;
67757;SDS011;54562;47.620;18.786;2023-07-31T18:21:17;7.30;;;2.30;;
67757;SDS011;54562;47.620;18.786;2023-07-31T18:24:25;6.40;;;2.30;;
67757;SDS011;54562;47.620;18.786;2023-07-31T18:27:31;14.50;;;2.60;;
67757;SDS011;54562;47.620;18.786;2023-07-31T18:30:38;7.80;;;2.10;;
67757;SDS011;54562;47.620;18.786;2023-07-31T18:33:44;6.60;;;2.00;;
67757;SDS011;54562;47.620;18.786;2023-07-31T18:36:51;9.00;;;2.20;;
67757;SDS011;54562;47.620;18.786;2023-07-31T18:39:57;6.00;;;2.00;;
67757;SDS011;54562;47.620;18.786;2023-07-31T18:43:04;5.10;;;1.80;;
67757;SDS011;54562;47.620;18.786;2023-07-31T18:46:10;7.80;;;2.10;;
67757;SDS011;54562;47.620;18.786;2023-07-31T18:49:17;5.40;;;1.90;;
67757;SDS011;54562;47.620;18.786;2023-07-31T18:52:24;9.20;;;2.40;;
67757;SDS011;54562;47.620;18.786;2023-07-31T18:55:30;7.30;;;2.10;;
67757;SDS011;54562;47.620;18.786;2023-07-31T18:58:37;5.30;;;2.30;;
67757;SDS011;54562;47.620;18.786;2023-07-31T19:01:43;6.40;;;2.90;;